Safari Quest — WDH4957 — position and weather

sailwx.info

Track history (hours):
 
Tides and Currents Weather Stations Pressure Air Temp Water Temp Dewpoint Dewpoint Depression Visibility Wind Speed Wind Dir Waves Ship Positions

Safari Quest

Owner: InnerSea Discoveries, LLC, Seattle, WA. More information available from US FCC via Universal Licensing System and Coast Guard Vessel Documentation Center.

Last reported at 2017-Oct-17 23:08 UTC. Time now 2017-Oct-18 00:16 UTC.
Position N 50°10' W 123°50'.

Length 37 m; draft 2.2 m.

Type: Ship. MMSI: 338891000.

Date/timePositionNaut miles runAvg speedWind from/ knotsBaromVisibWave heightAir tempDewpointWater temp
2017-Oct-17 23:08N 50°10' W 123°50'1 7.4
2017-Oct-17 22:58N 50°11' W 123°49'2 0.1
2017-Oct-17 00:01N 50°12' W 123°46'0 3.6
2017-Oct-17 00:00N 50°12' W 123°46'4 7.0
2017-Oct-16 23:26N 50°10' W 123°51'0 0.3
2017-Oct-16 23:01N 50°09' W 123°51'0 0.9
2017-Oct-16 22:31N 50°09' W 123°51'3 5.1
2017-Oct-16 22:00N 50°07' W 123°49'3 5.4
2017-Oct-16 21:31N 50°04' W 123°49'3 5.9
2017-Oct-16 21:01N 50°02' W 123°52'3 6.1
2017-Oct-16 20:30N 50°01' W 123°56'3 5.8
2017-Oct-16 20:01N 49°58' W 123°59'3 6.4
2017-Oct-16 19:30N 49°55' W 123°57'3 6.5
2017-Oct-16 19:00N 49°53' W 123°54'3 6.4
2017-Oct-16 18:30N 49°50' W 123°55'3 6.2
2017-Oct-16 18:01N 49°47' W 123°57'1 1.8
2017-Oct-16 17:31N 49°46' W 123°57'0 0.4
2017-Oct-16 17:00N 49°46' W 123°57'1 2.5
2017-Oct-16 16:30N 49°45' W 123°56'1 1.5
2017-Oct-16 16:00N 49°45' W 123°55'2 4.2
2017-Oct-16 15:31N 49°46' W 123°58'4 7.7
2017-Oct-16 15:01N 49°44' W 124°03'8 7.8
2017-Oct-16 14:01N 49°36' W 124°05'4 8.4
2017-Oct-16 13:31N 49°33' W 124°01'3 5.2
2017-Oct-16 13:01N 49°30' W 123°59'0 0.0
2017-Oct-16 12:26N 49°30' W 123°59'0 0.0
2017-Oct-16 11:59N 49°30' W 123°59'0 0.0
2017-Oct-16 11:29N 49°30' W 123°59'0 0.0
2017-Oct-16 10:59N 49°30' W 123°59'0 0.0
2017-Oct-16 10:29N 49°30' W 123°59'0 0.0
2017-Oct-16 09:59N 49°30' W 123°59'0 0.0
2017-Oct-16 09:29N 49°30' W 123°59'0 0.0
2017-Oct-16 08:59N 49°30' W 123°59'0 0.0
2017-Oct-16 08:29N 49°30' W 123°59'0 0.0
2017-Oct-16 08:00N 49°30' W 123°59'2 4.0
2017-Oct-16 07:30N 49°29' W 123°56'4 8.6
2017-Oct-16 07:00N 49°26' W 123°52'5 9.1
2017-Oct-16 06:30N 49°22' W 123°49'5 9.1
2017-Oct-16 06:00N 49°18' W 123°46'5 9.1
2017-Oct-16 05:30N 49°14' W 123°42'4 8.8
2017-Oct-16 05:00N 49°11' W 123°38'4 9.1
2017-Oct-16 04:31N 49°06' W 123°36'5 9.2
2017-Oct-16 04:00N 49°02' W 123°35'4 7.7
2017-Oct-16 03:30N 48°58' W 123°34'4 8.2
2017-Oct-16 03:00N 48°55' W 123°30'4 8.2
2017-Oct-16 02:30N 48°52' W 123°25'4 8.1
2017-Oct-16 02:00N 48°50' W 123°20'4 7.5
2017-Oct-16 01:30N 48°46' W 123°19'4 7.9
2017-Oct-16 00:58N 48°42' W 123°16'3 7.6
2017-Oct-16 00:30N 48°39' W 123°14'4 7.9
2017-Oct-16 00:01N 48°35' W 123°13'4 8.6
2017-Oct-15 23:31N 48°31' W 123°11'2 4.8
2017-Oct-15 23:00N 48°29' W 123°10'4 7.6
2017-Oct-15 22:30N 48°25' W 123°12'4 8.0
2017-Oct-15 22:00N 48°23' W 123°18'4 8.5
2017-Oct-15 21:31N 48°25' W 123°24'1 2.2
2017-Oct-15 21:00N 48°25' W 123°22'0 0.0
2017-Oct-15 20:29N 48°25' W 123°22'0 0.0
2017-Oct-15 19:59N 48°25' W 123°22'0 0.0
2017-Oct-15 19:29N 48°25' W 123°22'0 0.0
2017-Oct-15 18:59N 48°25' W 123°22'0 0.0
2017-Oct-15 18:29N 48°25' W 123°22'0 0.0
2017-Oct-15 17:56N 48°25' W 123°22'0 0.0
2017-Oct-15 17:29N 48°25' W 123°22'0 0.0
2017-Oct-15 16:59N 48°25' W 123°22'0 0.0
2017-Oct-15 16:29N 48°25' W 123°22'0 0.0
2017-Oct-15 15:59N 48°25' W 123°22'0 0.0
2017-Oct-15 15:29N 48°25' W 123°22'0 0.0
2017-Oct-15 14:59N 48°25' W 123°22'0 0.0
2017-Oct-15 13:59N 48°25' W 123°22'0 0.0
2017-Oct-15 13:29N 48°25' W 123°22'0 0.0
2017-Oct-15 12:59N 48°25' W 123°22'0 0.0
2017-Oct-15 12:29N 48°25' W 123°22'0 0.0
2017-Oct-15 11:59N 48°25' W 123°22'0 0.0
2017-Oct-15 11:29N 48°25' W 123°22'0 0.0
2017-Oct-15 10:59N 48°25' W 123°22'0 0.0
2017-Oct-15 10:29N 48°25' W 123°22'0 0.0
2017-Oct-15 09:59N 48°25' W 123°22'0 0.0
2017-Oct-15 09:29N 48°25' W 123°22'0 0.6
2017-Oct-15 09:00N 48°25' W 123°23'3 5.4
2017-Oct-15 08:30N 48°23' W 123°21'4 8.9
2017-Oct-15 08:00N 48°21' W 123°15'7 9.0
2017-Oct-15 07:10N 48°18' W 123°05'2 9.1
2017-Oct-15 06:56N 48°17' W 123°02'4 8.9
2017-Oct-15 06:28N 48°15' W 122°57'13 8.4
2017-Oct-15 04:55N 48°08' W 122°40'4 9.1
2017-Oct-15 04:29N 48°04' W 122°38'5 9.4
2017-Oct-15 03:59N 47°60' W 122°36'4 9.1
2017-Oct-15 03:30N 47°57' W 122°31'5 9.6
2017-Oct-15 03:00N 47°52' W 122°28'5 9.8
2017-Oct-15 02:30N 47°48' W 122°26'5 9.4
2017-Oct-15 02:00N 47°43' W 122°26'5 9.2
2017-Oct-15 01:30N 47°38' W 122°26'3 6.6
2017-Oct-15 01:00N 47°37' W 122°21'0 0.0
2017-Oct-15 00:04N 47°37' W 122°21'0 0.0
2017-Oct-14 23:55N 47°37' W 122°21'0 0.0
2017-Oct-14 23:28N 47°37' W 122°21'0 0.0
2017-Oct-14 22:43N 47°37' W 122°21'0 0.0
2017-Oct-14 22:16N 47°37' W 122°21'0 0.0
2017-Oct-14 21:58N 47°37' W 122°21'0 1.0
2017-Oct-14 21:31N 47°37' W 122°22'4 8.1
2017-Oct-14 21:01N 47°39' W 122°27'2 3.9
2017-Oct-14 20:31N 47°40' W 122°24'0 0.6
2017-Oct-14 20:01N 47°40' W 122°23'0 0.3
2017-Oct-14 19:30N 47°40' W 122°23'0 0.0
2017-Oct-14 19:00N 47°40' W 122°23'0 0.0
2017-Oct-14 18:30N 47°40' W 122°23'0 0.0
2017-Oct-14 18:00N 47°40' W 122°23'1 1.3
2017-Oct-14 17:30N 47°39' W 122°23'0 0.0
2017-Oct-14 16:58N 47°39' W 122°23'0 0.0
2017-Oct-14 16:28N 47°39' W 122°23'0 0.0
2017-Oct-14 15:58N 47°39' W 122°23'0 0.0
2017-Oct-14 15:28N 47°39' W 122°23'0 0.0
2017-Oct-14 14:58N 47°39' W 122°23'0 1.0
2017-Oct-14 14:30N 47°40' W 122°23'1 1.6
2017-Oct-14 14:00N 47°40' W 122°24'4 7.3
2017-Oct-14 13:30N 47°42' W 122°29'2 4.9
2017-Oct-14 13:00N 47°43' W 122°32'0 0.0
2017-Oct-14 12:29N 47°43' W 122°32'0 0.0
2017-Oct-14 11:59N 47°43' W 122°32'0 0.0
2017-Oct-14 11:29N 47°43' W 122°32'0 0.0
2017-Oct-14 10:59N 47°43' W 122°32'0 0.0
2017-Oct-14 10:29N 47°43' W 122°32'0 0.0
2017-Oct-14 09:59N 47°43' W 122°32'0 0.0
2017-Oct-14 09:29N 47°43' W 122°32'0 0.0
2017-Oct-14 08:59N 47°43' W 122°32'0 0.0
2017-Oct-14 08:29N 47°43' W 122°32'0 0.0
2017-Oct-14 07:59N 47°43' W 122°32'0 0.1
2017-Oct-14 07:29N 47°43' W 122°32'0 0.1
2017-Oct-14 06:59N 47°43' W 122°32'0 0.0
2017-Oct-14 06:29N 47°43' W 122°32'0 0.0
2017-Oct-14 05:59N 47°43' W 122°32'0 0.0
2017-Oct-14 05:29N 47°43' W 122°32'0 0.1
2017-Oct-14 05:00N 47°43' W 122°32'3 6.7
2017-Oct-14 04:31N 47°45' W 122°28'4 8.8
2017-Oct-14 04:01N 47°49' W 122°28'4 8.6
2017-Oct-14 03:30N 47°53' W 122°30'4 8.5
2017-Oct-14 03:00N 47°57' W 122°34'26 7.5
2017-Oct-13 23:31N 48°19' W 122°54'0 8.1
2017-Oct-13 23:29N 48°19' W 122°55'4 9.1
2017-Oct-13 23:00N 48°23' W 122°56'510.1
2017-Oct-13 22:30N 48°28' W 122°57'5 9.7
2017-Oct-13 22:00N 48°33' W 122°59'5 9.2
2017-Oct-13 21:30N 48°37' W 123°02'5 9.1
2017-Oct-13 21:00N 48°41' W 122°59'5 8.5
2017-Oct-13 20:29N 48°44' W 122°54'1 2.8
2017-Oct-13 19:57N 48°46' W 122°54'0 0.0
2017-Oct-13 03:40N 48°46' W 122°54'1 3.8
2017-Oct-13 03:30N 48°45' W 122°53'4 7.8
2017-Oct-13 02:59N 48°43' W 122°58'4 8.7
2017-Oct-13 02:30N 48°39' W 123°01'4 8.8
2017-Oct-13 02:01N 48°35' W 123°02'3 5.8
2017-Oct-13 01:30N 48°32' W 123°01'0 0.0
2017-Oct-13 01:00N 48°32' W 123°01'0 0.0
2017-Oct-13 00:30N 48°32' W 123°01'0 0.0
2017-Oct-12 23:57N 48°32' W 123°01'0 0.0
2017-Oct-12 23:30N 48°32' W 123°01'0 0.0
2017-Oct-12 22:57N 48°32' W 123°01'0 0.0
2017-Oct-12 22:24N 48°32' W 123°01'0 0.0
2017-Oct-12 22:00N 48°32' W 123°01'0 0.0
2017-Oct-12 21:30N 48°32' W 123°01'0 0.0
2017-Oct-12 21:00N 48°32' W 123°01'2 4.3
2017-Oct-12 20:30N 48°34' W 123°01'3 6.6
2017-Oct-12 20:00N 48°37' W 123°04'4 7.8
2017-Oct-12 19:30N 48°41' W 123°00'4 8.7
2017-Oct-12 18:59N 48°45' W 122°60'4 8.1
2017-Oct-12 18:30N 48°49' W 123°02'5 9.5
2017-Oct-12 18:00N 48°52' W 123°07'4 8.7
2017-Oct-12 17:30N 48°54' W 123°13'4 8.6
2017-Oct-12 17:00N 48°57' W 123°18'4 8.5
2017-Oct-12 16:30N 48°60' W 123°23'4 8.5
2017-Oct-12 16:00N 49°03' W 123°27'4 8.7
2017-Oct-12 15:30N 49°06' W 123°32'4 8.2
2017-Oct-12 15:00N 49°08' W 123°37'4 8.1
2017-Oct-12 14:30N 49°11' W 123°42'4 8.2
2017-Oct-12 14:00N 49°12' W 123°48'4 7.5
2017-Oct-12 13:30N 49°12' W 123°54'1 1.2
2017-Oct-12 12:55N 49°11' W 123°54'0 0.0
2017-Oct-12 12:28N 49°11' W 123°54'0 0.0
2017-Oct-12 11:52N 49°11' W 123°54'0 0.0
2017-Oct-12 11:28N 49°11' W 123°54'0 0.0
2017-Oct-12 10:58N 49°11' W 123°54'0 0.0
2017-Oct-12 10:28N 49°11' W 123°54'0 0.0
2017-Oct-12 09:55N 49°11' W 123°54'0 0.0
2017-Oct-12 09:28N 49°11' W 123°54'0 0.0
2017-Oct-12 08:55N 49°11' W 123°54'0 0.0
2017-Oct-12 08:25N 49°11' W 123°54'0 0.0
2017-Oct-12 07:55N 49°11' W 123°54'0 0.0
2017-Oct-12 07:25N 49°11' W 123°54'0 0.0
2017-Oct-12 06:58N 49°11' W 123°54'0 0.0
2017-Oct-12 06:25N 49°11' W 123°54'0 0.0
2017-Oct-12 05:55N 49°11' W 123°54'0 0.0
2017-Oct-12 05:28N 49°11' W 123°54'0 0.0
2017-Oct-12 04:58N 49°11' W 123°54'0 0.0
2017-Oct-12 03:40N 49°11' W 123°54'0 0.0
2017-Oct-12 03:13N 49°11' W 123°54'1 3.9
2017-Oct-12 03:00N 49°12' W 123°55'4 8.9
2017-Oct-12 02:30N 49°16' W 123°58'5 9.0
2017-Oct-12 02:00N 49°20' W 124°02'4 8.8
2017-Oct-12 01:31N 49°23' W 124°05'4 8.9
2017-Oct-12 01:00N 49°27' W 124°09'4 8.0
2017-Oct-12 00:31N 49°30' W 124°13'0 0.1
2017-Oct-12 00:00N 49°30' W 124°13'0 0.0
2017-Oct-11 23:30N 49°30' W 124°13'0 0.0
2017-Oct-11 23:00N 49°30' W 124°13'0 0.0
2017-Oct-11 22:31N 49°30' W 124°13'0 0.4
2017-Oct-11 22:01N 49°30' W 124°13'4 7.3
2017-Oct-11 21:31N 49°29' W 124°07'4 8.2
2017-Oct-11 21:00N 49°33' W 124°09'4 8.9
2017-Oct-11 20:31N 49°37' W 124°11'5 9.1
2017-Oct-11 20:00N 49°41' W 124°14'2 3.5
2017-Oct-11 19:30N 49°43' W 124°15'4 7.7
2017-Oct-11 19:01N 49°46' W 124°11'4 8.2
2017-Oct-11 18:30N 49°47' W 124°05'4 8.6
2017-Oct-11 18:00N 49°51' W 124°02'1 1.9
2017-Oct-11 17:29N 49°52' W 124°01'0 0.0
2017-Oct-11 16:59N 49°52' W 124°01'19 1.1
2017-Oct-10 23:59N 50°10' W 123°52'0 0.3
2017-Oct-10 23:29N 50°09' W 123°52'4 0.2
2017-Oct-09 22:57N 50°12' W 123°47'2 4.5
2017-Oct-09 22:30N 50°11' W 123°49'2 4.0
2017-Oct-09 22:00N 50°10' W 123°51'0 0.4
2017-Oct-09 21:30N 50°09' W 123°51'1 1.9
2017-Oct-09 21:00N 50°09' W 123°50'4 7.6
2017-Oct-09 20:30N 50°05' W 123°48'4 7.9
2017-Oct-09 20:01N 50°02' W 123°52'4 7.8
2017-Oct-09 19:30N 50°00' W 123°57'4 7.0
2017-Oct-09 19:00N 49°57' W 123°58'4 8.1
2017-Oct-09 18:30N 49°53' W 123°55'4 7.6
2017-Oct-09 18:00N 49°50' W 123°55'4 7.6
2017-Oct-09 17:30N 49°46' W 123°57'0 0.3
2017-Oct-09 17:01N 49°46' W 123°57'0 0.0
2017-Oct-09 16:30N 49°46' W 123°57'0 0.8
2017-Oct-09 16:00N 49°46' W 123°56'1 2.0
2017-Oct-09 15:31N 49°45' W 123°55'0 0.5
2017-Oct-09 15:00N 49°45' W 123°55'2 4.0
2017-Oct-09 14:31N 49°46' W 123°58'4 7.5
2017-Oct-09 14:00N 49°44' W 124°03'4 8.7
2017-Oct-09 13:30N 49°40' W 124°05'5 9.2
2017-Oct-09 13:01N 49°35' W 124°04'5 9.1
2017-Oct-09 12:30N 49°31' W 123°60'1 2.1
2017-Oct-09 11:59N 49°30' W 123°59'0 0.0
2017-Oct-09 11:29N 49°30' W 123°59'0 0.0
2017-Oct-09 10:58N 49°30' W 123°59'0 0.1
2017-Oct-09 10:28N 49°30' W 123°59'0 0.0
2017-Oct-09 09:55N 49°30' W 123°59'0 0.0
2017-Oct-09 09:28N 49°30' W 123°59'0 0.0
2017-Oct-09 08:58N 49°30' W 123°59'0 0.0
2017-Oct-09 08:28N 49°30' W 123°59'0 0.0
2017-Oct-09 07:58N 49°30' W 123°59'0 0.0
2017-Oct-09 07:28N 49°30' W 123°59'1 1.1
2017-Oct-09 07:01N 49°31' W 123°58'4 8.6
2017-Oct-09 06:31N 49°27' W 123°55'5 9.0
2017-Oct-09 06:00N 49°24' W 123°51'4 8.8
2017-Oct-09 05:30N 49°20' W 123°46'4 8.7
2017-Oct-09 05:00N 49°17' W 123°42'4 8.4
2017-Oct-09 04:30N 49°13' W 123°38'4 8.4
2017-Oct-09 04:01N 49°10' W 123°35'4 7.8
2017-Oct-09 03:30N 49°07' W 123°32'4 8.6
2017-Oct-09 03:00N 49°03' W 123°28'4 8.6
2017-Oct-09 02:30N 48°59' W 123°24'4 8.2
2017-Oct-09 02:00N 48°56' W 123°20'4 8.1
2017-Oct-09 01:30N 48°52' W 123°18'3 6.4
2017-Oct-09 01:00N 48°49' W 123°20'10 9.0
2017-Oct-08 23:56N 48°41' W 123°15'4 9.5
2017-Oct-08 23:30N 48°37' W 123°13'4 8.9
2017-Oct-08 23:00N 48°32' W 123°12'4 8.2
2017-Oct-08 22:30N 48°28' W 123°11'4 8.2
2017-Oct-08 22:01N 48°25' W 123°14'510.2
2017-Oct-08 21:31N 48°24' W 123°21'2 3.7
2017-Oct-08 21:01N 48°25' W 123°22'0 0.1
2017-Oct-08 20:29N 48°25' W 123°22'0 0.0
2017-Oct-08 19:59N 48°25' W 123°22'0 0.0
2017-Oct-08 19:29N 48°25' W 123°22'0 0.0
2017-Oct-08 18:59N 48°25' W 123°22'0 0.0
2017-Oct-08 18:29N 48°25' W 123°22'0 0.0
2017-Oct-08 17:59N 48°25' W 123°22'0 0.0
2017-Oct-08 17:29N 48°25' W 123°22'0 0.0
2017-Oct-08 16:59N 48°25' W 123°22'0 0.0
2017-Oct-08 16:29N 48°25' W 123°22'0 0.0
2017-Oct-08 15:59N 48°25' W 123°22'0 0.0
2017-Oct-08 15:29N 48°25' W 123°22'0 0.0
2017-Oct-08 14:59N 48°25' W 123°22'0 0.0
2017-Oct-08 14:29N 48°25' W 123°22'0 0.0
2017-Oct-08 13:59N 48°25' W 123°22'0 0.0
2017-Oct-08 13:29N 48°25' W 123°22'0 0.0
2017-Oct-08 12:59N 48°25' W 123°22'0 0.0
2017-Oct-08 12:29N 48°25' W 123°22'0 0.0
2017-Oct-08 11:59N 48°25' W 123°22'0 0.0
2017-Oct-08 11:29N 48°25' W 123°22'0 0.0
2017-Oct-08 10:59N 48°25' W 123°22'0 0.0
2017-Oct-08 10:29N 48°25' W 123°22'0 0.0
2017-Oct-08 09:59N 48°25' W 123°22'0 0.0
2017-Oct-08 09:29N 48°25' W 123°22'0 0.0
2017-Oct-08 09:01N 48°25' W 123°22'2 3.0
2017-Oct-08 08:30N 48°24' W 123°23'3 6.8
2017-Oct-08 08:00N 48°23' W 123°18'4 7.0
2017-Oct-08 07:29N 48°20' W 123°14'5 9.1
2017-Oct-08 06:55N 48°18' W 123°07'6 9.4
2017-Oct-08 06:16N 48°15' W 122°58'19 8.7
2017-Oct-08 04:07N 48°03' W 122°37'411.3
2017-Oct-08 03:45N 47°59' W 122°35'311.3
2017-Oct-08 03:30N 47°57' W 122°32'5 9.6
2017-Oct-08 03:00N 47°53' W 122°28'5 9.9
2017-Oct-08 02:30N 47°48' W 122°26'5 9.4
2017-Oct-08 02:00N 47°44' W 122°26'4 8.9
2017-Oct-08 01:31N 47°39' W 122°27'4 8.7
2017-Oct-08 01:00N 47°37' W 122°21'0 0.2
2017-Oct-08 00:28N 47°37' W 122°21'0 0.0
2017-Oct-07 23:58N 47°37' W 122°21'0 0.0
2017-Oct-07 23:28N 47°37' W 122°21'  
Track history (hours):
 
Tides and Currents Weather Stations Pressure Air Temp Water Temp Dewpoint Dewpoint Depression Visibility Wind Speed Wind Dir Waves Ship Positions

Safari Quest

Owner: InnerSea Discoveries, LLC, Seattle, WA. More information available from US FCC via Universal Licensing System and Coast Guard Vessel Documentation Center.

Last reported at 2017-Oct-17 23:08 UTC. Time now 2017-Oct-18 00:16 UTC.
Position N 50°10' W 123°50'.

Length 37 m; draft 2.2 m.

Type: Ship. MMSI: 338891000.

Date/timePositionNaut miles runAvg speedWind from/ knotsBaromVisibWave heightAir tempDewpointWater temp
2017-Oct-17 23:08N 50°10' W 123°50'1 7.4
2017-Oct-17 22:58N 50°11' W 123°49'2 0.1
2017-Oct-17 00:01N 50°12' W 123°46'0 3.6
2017-Oct-17 00:00N 50°12' W 123°46'4 7.0
2017-Oct-16 23:26N 50°10' W 123°51'0 0.3
2017-Oct-16 23:01N 50°09' W 123°51'0 0.9
2017-Oct-16 22:31N 50°09' W 123°51'3 5.1
2017-Oct-16 22:00N 50°07' W 123°49'3 5.4
2017-Oct-16 21:31N 50°04' W 123°49'3 5.9
2017-Oct-16 21:01N 50°02' W 123°52'3 6.1
2017-Oct-16 20:30N 50°01' W 123°56'3 5.8
2017-Oct-16 20:01N 49°58' W 123°59'3 6.4
2017-Oct-16 19:30N 49°55' W 123°57'3 6.5
2017-Oct-16 19:00N 49°53' W 123°54'3 6.4
2017-Oct-16 18:30N 49°50' W 123°55'3 6.2
2017-Oct-16 18:01N 49°47' W 123°57'1 1.8
2017-Oct-16 17:31N 49°46' W 123°57'0 0.4
2017-Oct-16 17:00N 49°46' W 123°57'1 2.5
2017-Oct-16 16:30N 49°45' W 123°56'1 1.5
2017-Oct-16 16:00N 49°45' W 123°55'2 4.2
2017-Oct-16 15:31N 49°46' W 123°58'4 7.7
2017-Oct-16 15:01N 49°44' W 124°03'8 7.8
2017-Oct-16 14:01N 49°36' W 124°05'4 8.4
2017-Oct-16 13:31N 49°33' W 124°01'3 5.2
2017-Oct-16 13:01N 49°30' W 123°59'0 0.0
2017-Oct-16 12:26N 49°30' W 123°59'0 0.0
2017-Oct-16 11:59N 49°30' W 123°59'0 0.0
2017-Oct-16 11:29N 49°30' W 123°59'0 0.0
2017-Oct-16 10:59N 49°30' W 123°59'0 0.0
2017-Oct-16 10:29N 49°30' W 123°59'0 0.0
2017-Oct-16 09:59N 49°30' W 123°59'0 0.0
2017-Oct-16 09:29N 49°30' W 123°59'0 0.0
2017-Oct-16 08:59N 49°30' W 123°59'0 0.0
2017-Oct-16 08:29N 49°30' W 123°59'0 0.0
2017-Oct-16 08:00N 49°30' W 123°59'2 4.0
2017-Oct-16 07:30N 49°29' W 123°56'4 8.6
2017-Oct-16 07:00N 49°26' W 123°52'5 9.1
2017-Oct-16 06:30N 49°22' W 123°49'5 9.1
2017-Oct-16 06:00N 49°18' W 123°46'5 9.1
2017-Oct-16 05:30N 49°14' W 123°42'4 8.8
2017-Oct-16 05:00N 49°11' W 123°38'4 9.1
2017-Oct-16 04:31N 49°06' W 123°36'5 9.2
2017-Oct-16 04:00N 49°02' W 123°35'4 7.7
2017-Oct-16 03:30N 48°58' W 123°34'4 8.2
2017-Oct-16 03:00N 48°55' W 123°30'4 8.2
2017-Oct-16 02:30N 48°52' W 123°25'4 8.1
2017-Oct-16 02:00N 48°50' W 123°20'4 7.5
2017-Oct-16 01:30N 48°46' W 123°19'4 7.9
2017-Oct-16 00:58N 48°42' W 123°16'3 7.6
2017-Oct-16 00:30N 48°39' W 123°14'4 7.9
2017-Oct-16 00:01N 48°35' W 123°13'4 8.6
2017-Oct-15 23:31N 48°31' W 123°11'2 4.8
2017-Oct-15 23:00N 48°29' W 123°10'4 7.6
2017-Oct-15 22:30N 48°25' W 123°12'4 8.0
2017-Oct-15 22:00N 48°23' W 123°18'4 8.5
2017-Oct-15 21:31N 48°25' W 123°24'1 2.2
2017-Oct-15 21:00N 48°25' W 123°22'0 0.0
2017-Oct-15 20:29N 48°25' W 123°22'0 0.0
2017-Oct-15 19:59N 48°25' W 123°22'0 0.0
2017-Oct-15 19:29N 48°25' W 123°22'0 0.0
2017-Oct-15 18:59N 48°25' W 123°22'0 0.0
2017-Oct-15 18:29N 48°25' W 123°22'0 0.0
2017-Oct-15 17:56N 48°25' W 123°22'0 0.0
2017-Oct-15 17:29N 48°25' W 123°22'0 0.0
2017-Oct-15 16:59N 48°25' W 123°22'0 0.0
2017-Oct-15 16:29N 48°25' W 123°22'0 0.0
2017-Oct-15 15:59N 48°25' W 123°22'0 0.0
2017-Oct-15 15:29N 48°25' W 123°22'0 0.0
2017-Oct-15 14:59N 48°25' W 123°22'0 0.0
2017-Oct-15 13:59N 48°25' W 123°22'0 0.0
2017-Oct-15 13:29N 48°25' W 123°22'0 0.0
2017-Oct-15 12:59N 48°25' W 123°22'0 0.0
2017-Oct-15 12:29N 48°25' W 123°22'0 0.0
2017-Oct-15 11:59N 48°25' W 123°22'0 0.0
2017-Oct-15 11:29N 48°25' W 123°22'0 0.0
2017-Oct-15 10:59N 48°25' W 123°22'0 0.0
2017-Oct-15 10:29N 48°25' W 123°22'0 0.0
2017-Oct-15 09:59N 48°25' W 123°22'0 0.0
2017-Oct-15 09:29N 48°25' W 123°22'0 0.6
2017-Oct-15 09:00N 48°25' W 123°23'3 5.4
2017-Oct-15 08:30N 48°23' W 123°21'4 8.9
2017-Oct-15 08:00N 48°21' W 123°15'7 9.0
2017-Oct-15 07:10N 48°18' W 123°05'2 9.1
2017-Oct-15 06:56N 48°17' W 123°02'4 8.9
2017-Oct-15 06:28N 48°15' W 122°57'13 8.4
2017-Oct-15 04:55N 48°08' W 122°40'4 9.1
2017-Oct-15 04:29N 48°04' W 122°38'5 9.4
2017-Oct-15 03:59N 47°60' W 122°36'4 9.1
2017-Oct-15 03:30N 47°57' W 122°31'5 9.6
2017-Oct-15 03:00N 47°52' W 122°28'5 9.8
2017-Oct-15 02:30N 47°48' W 122°26'5 9.4
2017-Oct-15 02:00N 47°43' W 122°26'5 9.2
2017-Oct-15 01:30N 47°38' W 122°26'3 6.6
2017-Oct-15 01:00N 47°37' W 122°21'0 0.0
2017-Oct-15 00:04N 47°37' W 122°21'0 0.0
2017-Oct-14 23:55N 47°37' W 122°21'0 0.0
2017-Oct-14 23:28N 47°37' W 122°21'0 0.0
2017-Oct-14 22:43N 47°37' W 122°21'0 0.0
2017-Oct-14 22:16N 47°37' W 122°21'0 0.0
2017-Oct-14 21:58N 47°37' W 122°21'0 1.0
2017-Oct-14 21:31N 47°37' W 122°22'4 8.1
2017-Oct-14 21:01N 47°39' W 122°27'2 3.9
2017-Oct-14 20:31N 47°40' W 122°24'0 0.6
2017-Oct-14 20:01N 47°40' W 122°23'0 0.3
2017-Oct-14 19:30N 47°40' W 122°23'0 0.0
2017-Oct-14 19:00N 47°40' W 122°23'0 0.0
2017-Oct-14 18:30N 47°40' W 122°23'0 0.0
2017-Oct-14 18:00N 47°40' W 122°23'1 1.3
2017-Oct-14 17:30N 47°39' W 122°23'0 0.0
2017-Oct-14 16:58N 47°39' W 122°23'0 0.0
2017-Oct-14 16:28N 47°39' W 122°23'0 0.0
2017-Oct-14 15:58N 47°39' W 122°23'0 0.0
2017-Oct-14 15:28N 47°39' W 122°23'0 0.0
2017-Oct-14 14:58N 47°39' W 122°23'0 1.0
2017-Oct-14 14:30N 47°40' W 122°23'1 1.6
2017-Oct-14 14:00N 47°40' W 122°24'4 7.3
2017-Oct-14 13:30N 47°42' W 122°29'2 4.9
2017-Oct-14 13:00N 47°43' W 122°32'0 0.0
2017-Oct-14 12:29N 47°43' W 122°32'0 0.0
2017-Oct-14 11:59N 47°43' W 122°32'0 0.0
2017-Oct-14 11:29N 47°43' W 122°32'0 0.0
2017-Oct-14 10:59N 47°43' W 122°32'0 0.0
2017-Oct-14 10:29N 47°43' W 122°32'0 0.0
2017-Oct-14 09:59N 47°43' W 122°32'0 0.0
2017-Oct-14 09:29N 47°43' W 122°32'0 0.0
2017-Oct-14 08:59N 47°43' W 122°32'0 0.0
2017-Oct-14 08:29N 47°43' W 122°32'0 0.0
2017-Oct-14 07:59N 47°43' W 122°32'0 0.1
2017-Oct-14 07:29N 47°43' W 122°32'0 0.1
2017-Oct-14 06:59N 47°43' W 122°32'0 0.0
2017-Oct-14 06:29N 47°43' W 122°32'0 0.0
2017-Oct-14 05:59N 47°43' W 122°32'0 0.0
2017-Oct-14 05:29N 47°43' W 122°32'0 0.1
2017-Oct-14 05:00N 47°43' W 122°32'3 6.7
2017-Oct-14 04:31N 47°45' W 122°28'4 8.8
2017-Oct-14 04:01N 47°49' W 122°28'4 8.6
2017-Oct-14 03:30N 47°53' W 122°30'4 8.5
2017-Oct-14 03:00N 47°57' W 122°34'26 7.5
2017-Oct-13 23:31N 48°19' W 122°54'0 8.1
2017-Oct-13 23:29N 48°19' W 122°55'4 9.1
2017-Oct-13 23:00N 48°23' W 122°56'510.1
2017-Oct-13 22:30N 48°28' W 122°57'5 9.7
2017-Oct-13 22:00N 48°33' W 122°59'5 9.2
2017-Oct-13 21:30N 48°37' W 123°02'5 9.1
2017-Oct-13 21:00N 48°41' W 122°59'5 8.5
2017-Oct-13 20:29N 48°44' W 122°54'1 2.8
2017-Oct-13 19:57N 48°46' W 122°54'0 0.0
2017-Oct-13 03:40N 48°46' W 122°54'1 3.8
2017-Oct-13 03:30N 48°45' W 122°53'4 7.8
2017-Oct-13 02:59N 48°43' W 122°58'4 8.7
2017-Oct-13 02:30N 48°39' W 123°01'4 8.8
2017-Oct-13 02:01N 48°35' W 123°02'3 5.8
2017-Oct-13 01:30N 48°32' W 123°01'0 0.0
2017-Oct-13 01:00N 48°32' W 123°01'0 0.0
2017-Oct-13 00:30N 48°32' W 123°01'0 0.0
2017-Oct-12 23:57N 48°32' W 123°01'0 0.0
2017-Oct-12 23:30N 48°32' W 123°01'0 0.0
2017-Oct-12 22:57N 48°32' W 123°01'0 0.0
2017-Oct-12 22:24N 48°32' W 123°01'0 0.0
2017-Oct-12 22:00N 48°32' W 123°01'0 0.0
2017-Oct-12 21:30N 48°32' W 123°01'0 0.0
2017-Oct-12 21:00N 48°32' W 123°01'2 4.3
2017-Oct-12 20:30N 48°34' W 123°01'3 6.6
2017-Oct-12 20:00N 48°37' W 123°04'4 7.8
2017-Oct-12 19:30N 48°41' W 123°00'4 8.7
2017-Oct-12 18:59N 48°45' W 122°60'4 8.1
2017-Oct-12 18:30N 48°49' W 123°02'5 9.5
2017-Oct-12 18:00N 48°52' W 123°07'4 8.7
2017-Oct-12 17:30N 48°54' W 123°13'4 8.6
2017-Oct-12 17:00N 48°57' W 123°18'4 8.5
2017-Oct-12 16:30N 48°60' W 123°23'4 8.5
2017-Oct-12 16:00N 49°03' W 123°27'4 8.7
2017-Oct-12 15:30N 49°06' W 123°32'4 8.2
2017-Oct-12 15:00N 49°08' W 123°37'4 8.1
2017-Oct-12 14:30N 49°11' W 123°42'4 8.2
2017-Oct-12 14:00N 49°12' W 123°48'4 7.5
2017-Oct-12 13:30N 49°12' W 123°54'1 1.2
2017-Oct-12 12:55N 49°11' W 123°54'0 0.0
2017-Oct-12 12:28N 49°11' W 123°54'0 0.0
2017-Oct-12 11:52N 49°11' W 123°54'0 0.0
2017-Oct-12 11:28N 49°11' W 123°54'0 0.0
2017-Oct-12 10:58N 49°11' W 123°54'0 0.0
2017-Oct-12 10:28N 49°11' W 123°54'0 0.0
2017-Oct-12 09:55N 49°11' W 123°54'0 0.0
2017-Oct-12 09:28N 49°11' W 123°54'0 0.0
2017-Oct-12 08:55N 49°11' W 123°54'0 0.0
2017-Oct-12 08:25N 49°11' W 123°54'0 0.0
2017-Oct-12 07:55N 49°11' W 123°54'0 0.0
2017-Oct-12 07:25N 49°11' W 123°54'0 0.0
2017-Oct-12 06:58N 49°11' W 123°54'0 0.0
2017-Oct-12 06:25N 49°11' W 123°54'0 0.0
2017-Oct-12 05:55N 49°11' W 123°54'0 0.0
2017-Oct-12 05:28N 49°11' W 123°54'0 0.0
2017-Oct-12 04:58N 49°11' W 123°54'0 0.0
2017-Oct-12 03:40N 49°11' W 123°54'0 0.0
2017-Oct-12 03:13N 49°11' W 123°54'1 3.9
2017-Oct-12 03:00N 49°12' W 123°55'4 8.9
2017-Oct-12 02:30N 49°16' W 123°58'5 9.0
2017-Oct-12 02:00N 49°20' W 124°02'4 8.8
2017-Oct-12 01:31N 49°23' W 124°05'4 8.9
2017-Oct-12 01:00N 49°27' W 124°09'4 8.0
2017-Oct-12 00:31N 49°30' W 124°13'0 0.1
2017-Oct-12 00:00N 49°30' W 124°13'0 0.0
2017-Oct-11 23:30N 49°30' W 124°13'0 0.0
2017-Oct-11 23:00N 49°30' W 124°13'0 0.0
2017-Oct-11 22:31N 49°30' W 124°13'0 0.4
2017-Oct-11 22:01N 49°30' W 124°13'4 7.3
2017-Oct-11 21:31N 49°29' W 124°07'4 8.2
2017-Oct-11 21:00N 49°33' W 124°09'4 8.9
2017-Oct-11 20:31N 49°37' W 124°11'5 9.1
2017-Oct-11 20:00N 49°41' W 124°14'2 3.5
2017-Oct-11 19:30N 49°43' W 124°15'4 7.7
2017-Oct-11 19:01N 49°46' W 124°11'4 8.2
2017-Oct-11 18:30N 49°47' W 124°05'4 8.6
2017-Oct-11 18:00N 49°51' W 124°02'1 1.9
2017-Oct-11 17:29N 49°52' W 124°01'0 0.0
2017-Oct-11 16:59N 49°52' W 124°01'19 1.1
2017-Oct-10 23:59N 50°10' W 123°52'0 0.3
2017-Oct-10 23:29N 50°09' W 123°52'4 0.2
2017-Oct-09 22:57N 50°12' W 123°47'2 4.5
2017-Oct-09 22:30N 50°11' W 123°49'2 4.0
2017-Oct-09 22:00N 50°10' W 123°51'0 0.4
2017-Oct-09 21:30N 50°09' W 123°51'1 1.9
2017-Oct-09 21:00N 50°09' W 123°50'4 7.6
2017-Oct-09 20:30N 50°05' W 123°48'4 7.9
2017-Oct-09 20:01N 50°02' W 123°52'4 7.8
2017-Oct-09 19:30N 50°00' W 123°57'4 7.0
2017-Oct-09 19:00N 49°57' W 123°58'4 8.1
2017-Oct-09 18:30N 49°53' W 123°55'4 7.6
2017-Oct-09 18:00N 49°50' W 123°55'4 7.6
2017-Oct-09 17:30N 49°46' W 123°57'0 0.3
2017-Oct-09 17:01N 49°46' W 123°57'0 0.0
2017-Oct-09 16:30N 49°46' W 123°57'0 0.8
2017-Oct-09 16:00N 49°46' W 123°56'1 2.0
2017-Oct-09 15:31N 49°45' W 123°55'0 0.5
2017-Oct-09 15:00N 49°45' W 123°55'2 4.0
2017-Oct-09 14:31N 49°46' W 123°58'4 7.5
2017-Oct-09 14:00N 49°44' W 124°03'4 8.7
2017-Oct-09 13:30N 49°40' W 124°05'5 9.2
2017-Oct-09 13:01N 49°35' W 124°04'5 9.1
2017-Oct-09 12:30N 49°31' W 123°60'1 2.1
2017-Oct-09 11:59N 49°30' W 123°59'0 0.0
2017-Oct-09 11:29N 49°30' W 123°59'0 0.0
2017-Oct-09 10:58N 49°30' W 123°59'0 0.1
2017-Oct-09 10:28N 49°30' W 123°59'0 0.0
2017-Oct-09 09:55N 49°30' W 123°59'0 0.0
2017-Oct-09 09:28N 49°30' W 123°59'0 0.0
2017-Oct-09 08:58N 49°30' W 123°59'0 0.0
2017-Oct-09 08:28N 49°30' W 123°59'0 0.0
2017-Oct-09 07:58N 49°30' W 123°59'0 0.0
2017-Oct-09 07:28N 49°30' W 123°59'1 1.1
2017-Oct-09 07:01N 49°31' W 123°58'4 8.6
2017-Oct-09 06:31N 49°27' W 123°55'5 9.0
2017-Oct-09 06:00N 49°24' W 123°51'4 8.8
2017-Oct-09 05:30N 49°20' W 123°46'4 8.7
2017-Oct-09 05:00N 49°17' W 123°42'4 8.4
2017-Oct-09 04:30N 49°13' W 123°38'4 8.4
2017-Oct-09 04:01N 49°10' W 123°35'4 7.8
2017-Oct-09 03:30N 49°07' W 123°32'4 8.6
2017-Oct-09 03:00N 49°03' W 123°28'4 8.6
2017-Oct-09 02:30N 48°59' W 123°24'4 8.2
2017-Oct-09 02:00N 48°56' W 123°20'4 8.1
2017-Oct-09 01:30N 48°52' W 123°18'3 6.4
2017-Oct-09 01:00N 48°49' W 123°20'10 9.0
2017-Oct-08 23:56N 48°41' W 123°15'4 9.5
2017-Oct-08 23:30N 48°37' W 123°13'4 8.9
2017-Oct-08 23:00N 48°32' W 123°12'4 8.2
2017-Oct-08 22:30N 48°28' W 123°11'4 8.2
2017-Oct-08 22:01N 48°25' W 123°14'510.2
2017-Oct-08 21:31N 48°24' W 123°21'2 3.7
2017-Oct-08 21:01N 48°25' W 123°22'0 0.1
2017-Oct-08 20:29N 48°25' W 123°22'0 0.0
2017-Oct-08 19:59N 48°25' W 123°22'0 0.0
2017-Oct-08 19:29N 48°25' W 123°22'0 0.0
2017-Oct-08 18:59N 48°25' W 123°22'0 0.0
2017-Oct-08 18:29N 48°25' W 123°22'0 0.0
2017-Oct-08 17:59N 48°25' W 123°22'0 0.0
2017-Oct-08 17:29N 48°25' W 123°22'0 0.0
2017-Oct-08 16:59N 48°25' W 123°22'0 0.0
2017-Oct-08 16:29N 48°25' W 123°22'0 0.0
2017-Oct-08 15:59N 48°25' W 123°22'0 0.0
2017-Oct-08 15:29N 48°25' W 123°22'0 0.0
2017-Oct-08 14:59N 48°25' W 123°22'0 0.0
2017-Oct-08 14:29N 48°25' W 123°22'0 0.0
2017-Oct-08 13:59N 48°25' W 123°22'0 0.0
2017-Oct-08 13:29N 48°25' W 123°22'0 0.0
2017-Oct-08 12:59N 48°25' W 123°22'0 0.0
2017-Oct-08 12:29N 48°25' W 123°22'0 0.0
2017-Oct-08 11:59N 48°25' W 123°22'0 0.0
2017-Oct-08 11:29N 48°25' W 123°22'0 0.0
2017-Oct-08 10:59N 48°25' W 123°22'0 0.0
2017-Oct-08 10:29N 48°25' W 123°22'0 0.0
2017-Oct-08 09:59N 48°25' W 123°22'0 0.0
2017-Oct-08 09:29N 48°25' W 123°22'0 0.0
2017-Oct-08 09:01N 48°25' W 123°22'2 3.0
2017-Oct-08 08:30N 48°24' W 123°23'3 6.8
2017-Oct-08 08:00N 48°23' W 123°18'4 7.0
2017-Oct-08 07:29N 48°20' W 123°14'5 9.1
2017-Oct-08 06:55N 48°18' W 123°07'6 9.4
2017-Oct-08 06:16N 48°15' W 122°58'19 8.7
2017-Oct-08 04:07N 48°03' W 122°37'411.3
2017-Oct-08 03:45N 47°59' W 122°35'311.3
2017-Oct-08 03:30N 47°57' W 122°32'5 9.6
2017-Oct-08 03:00N 47°53' W 122°28'5 9.9
2017-Oct-08 02:30N 47°48' W 122°26'5 9.4
2017-Oct-08 02:00N 47°44' W 122°26'4 8.9
2017-Oct-08 01:31N 47°39' W 122°27'4 8.7
2017-Oct-08 01:00N 47°37' W 122°21'0 0.2
2017-Oct-08 00:28N 47°37' W 122°21'0 0.0
2017-Oct-07 23:58N 47°37' W 122°21'0 0.0
2017-Oct-07 23:28N 47°37' W 122°21'  

Dump ship's entire track history